logo
Search for airport 
image banner adimage banner adimage banner ad
image banner ad

BISF - Selfoss

Located in Selfoss, Iceland

ICAO - BISF, IATA -

Data provided by Airmate  

General information

Coordinates: N63°55'45" W21°2'16"
Elevation is 47 feet MSL.
 
View others Airports in South

Operational data

Special qualification required
Current time UTC:
Current local time:
Weather at : BIRK - Reykjavik ( 49 km )
METAR: BIRK 240600Z 08013G24KT CAVOK 08/01 Q0996
TAF: TAF BIRK 240455Z 2406/2506 08014KT 9999 FEW050 TX10/2413Z TN05/2406Z PROB40 TEMPO 2415/2501 -RA BKN014 OVC018
View NOTAMs / SUP AIP / TFR affecting this airport [VIEW]
Communications frequencies: [VIEW]

Runways:

RWY identifierQFULength (ft)Width (ft)SurfaceLDA (ft)
0534°261898GRASS
23214°261898GRASS
14130°260598GRASS
32310°260598GRASS

Airport contact information

Address: Selfoss Iceland

Satellite view of BISF